Home > Products > Valid Products > MTR

000
SAUS46 KSTO 190131
MTRBLU
SPECI KBLU 190130Z AUTO 09003KT 1 3/4SM BR FEW001 02/01 A3015 RMK
AO2 T00220006





000
SAUS46 KSTO 190126
MTRBLU
SPECI KBLU 190125Z AUTO 00000KT 3SM BR FEW001 02/01 A3016 RMK AO2
T00220006





000
SAUS46 KSTO 190119
MTRBLU
SPECI KBLU 190118Z AUTO 00000KT 2SM BR SCT001 03/01 A3016 RMK AO2
T00280011





000
SAUS46 KSTO 190118
MTRBLU
SPECI KBLU 190116Z AUTO 00000KT 1SM BR VV002 03/01 A3016 RMK AO2
T00280011





000
SAUS46 KSTO 190109
MTRBLU
SPECI KBLU 190108Z AUTO 00000KT 1/2SM FG VV001 03/01 A3016 RMK AO2
T00280011





000
SAUS46 KSTO 190102
MTRBLU
SPECI KBLU 190101Z AUTO 00000KT 1SM BR VV001 03/02 A3016 RMK AO2
T00330017





000
SAUS46 KSTO 190100
MTRBLU
SPECI KBLU 190059Z AUTO 00000KT 1 1/2SM BR SCT002 03/02 A3016 RMK
AO2 T00330017





000
SAUS46 KSTO 190053
MTRBLU
METAR KBLU 190052Z AUTO 00000KT 10SM FEW004 03/01 A3015 RMK AO2
SLP210 T00330011





000
SAUS46 KSTO 190040
MTRBLU
SPECI KBLU 190039Z AUTO 00000KT 10SM SCT007 03/01 A3015 RMK AO2
T00330011





000
SAUS46 KSTO 182353
MTRBLU
METAR KBLU 182352Z AUTO 18003KT 10SM BKN007 04/02 A3015 RMK AO2
SLP210 T00390017 10044 20022 55000





000
SAUS46 KSTO 182333
MTRBLU
SPECI KBLU 182331Z AUTO 18004KT 10SM SCT008 BKN011 04/02 A3016 RMK
AO2 T00390017





000
SAUS46 KSTO 182253
MTRBLU
METAR KBLU 182252Z AUTO 15005KT 10SM SCT010 BKN100 04/01 A3014 RMK
AO2 SLP204 T00440006





000
SAUS46 KSTO 182222
MTRBLU
SPECI KBLU 182221Z AUTO 18004KT 10SM FEW009 04/01 A3015 RMK AO2
T00440011





000
SAUS46 KSTO 182154
MTRBLU
METAR KBLU 182152Z AUTO VRB05KT 10SM SCT017 04/01 A3014 RMK AO2
SLP203 T00440006





000
SAUS46 KSTO 182118
MTRBLU
SPECI KBLU 182117Z AUTO 15005KT 10SM FEW013 SCT019 04/01 A3015 RMK
AO2 T00440006





000
SAUS46 KSTO 182053
MTRBLU
METAR KBLU 182052Z AUTO 15005KT 10SM BKN016 BKN030 04/00 A3015 RMK
AO2 SLP210 T00390000 58005





000
SAUS46 KSTO 182038
MTRBLU
SPECI KBLU 182037Z AUTO 19004KT 10SM BKN016 OVC030 04/00 A3016 RMK
AO2 T00390000





000
SAUS46 KSTO 181954
MTRBLU
METAR KBLU 181952Z AUTO 15005KT 10SM SCT013 SCT018 OVC030 03/00
A3016 RMK AO2 SLP214 T00330000





000
SAUS46 KSTO 181921
MTRBLU
SPECI KBLU 181920Z AUTO 00000KT 10SM FEW009 BKN015 04/01 A3017 RMK
AO2 T00390011





000
SAUS46 KSTO 181853
MTRBLU
METAR KBLU 181852Z AUTO 00000KT 10SM SCT030 03/01 A3018 RMK AO2
SLP218 T00330006





000
SAUS46 KSTO 181754
MTRBLU
METAR KBLU 181752Z AUTO 00000KT 10SM OVC031 02/00 A3017 RMK AO2
SLP220 60000 T00220000 10028 20006 53015





000
SAUS46 KSTO 181653
MTRBLU
METAR KBLU 181652Z AUTO 09003KT 10SM BKN035 01/M01 A3014 RMK AO2
SLP212 T00111006





000
SAUS46 KSTO 181639
MTRBLU
SPECI KBLU 181638Z AUTO 00000KT 10SM SCT023 OVC036 01/M01 A3014 RMK
AO2 T00111011





000
SAUS46 KSTO 181553
MTRBLU
METAR KBLU 181552Z AUTO 11003KT 10SM OVC021 01/M01 A3012 RMK AO2
SLP205 T00111011





000
SAUS46 KSTO 181506
MTRBLU
SPECI KBLU 181504Z AUTO 11003KT 10SM SCT020 OVC028 01/M01 A3012 RMK
AO2 T00061011





000
SAUS46 KSTO 181454
MTRBLU
METAR KBLU 181452Z AUTO 10003KT 10SM SCT018 OVC030 01/M01 A3012 RMK
AO2 SLP209 60000 T00061011 53009





000
SAUS46 KSTO 181404
MTRBLU
SPECI KBLU 181403Z AUTO 10004KT 10SM SCT015 BKN024 OVC036 01/M01
A3011 RMK AO2 T00061011





000
SAUS46 KSTO 181404
MTRBLU
SPECI KBLU 181403Z AUTO 10004KT 10SM SCT015 BKN024 OVC036 01/M01
A3011 RMK AO2 T00061011





000
SAUS46 KSTO 181353
MTRBLU
METAR KBLU 181352Z AUTO 10004KT 10SM BKN014 BKN036 01/M01 A3010 RMK
AO2 SNE1255 SLP203 P0000 T00061011





000
SAUS46 KSTO 181353
MTRBLU
METAR KBLU 181352Z AUTO 10004KT 10SM BKN014 BKN036 01/M01 A3010 RMK
AO2 SNE1255 SLP203 P0000 T00061011





000
SAUS46 KSTO 181254
MTRBLU
METAR KBLU 181252Z AUTO VRB03KT 8SM -SN OVC011 01/M01 A3009 RMK AO2
SNE01B44 SLP198 P0000 T00061011





000
SAUS46 KSTO 181254
MTRBLU
METAR KBLU 181252Z AUTO VRB03KT 8SM -SN OVC011 01/M01 A3009 RMK AO2
SNE01B44 SLP198 P0000 T00061011





000
SAUS46 KSTO 181247
MTRBLU
SPECI KBLU 181245Z AUTO 12003KT 8SM -SN OVC013 01/M01 A3009 RMK AO2
SNE01B44 P0000 T00061011





000
SAUS46 KSTO 181247
MTRBLU
SPECI KBLU 181245Z AUTO 12003KT 8SM -SN OVC013 01/M01 A3009 RMK AO2
SNE01B44 P0000 T00061011





000
SAUS46 KSTO 181238
MTRBLU
SPECI KBLU 181237Z AUTO 00000KT 9SM OVC015 01/M01 A3008 RMK AO2
SNE01 P0000 T00061011





000
SAUS46 KSTO 181238
MTRBLU
SPECI KBLU 181237Z AUTO 00000KT 9SM OVC015 01/M01 A3008 RMK AO2
SNE01 P0000 T00061011





000
SAUS46 KSTO 181223
MTRBLU
SPECI KBLU 181222Z AUTO 12003KT 8SM BKN014 OVC024 01/M01 A3009 RMK
AO2 SNE01 P0000 T00061011





000
SAUS46 KSTO 181223
MTRBLU
SPECI KBLU 181222Z AUTO 12003KT 8SM BKN014 OVC024 01/M01 A3009 RMK
AO2 SNE01 P0000 T00061011





000
SAUS46 KSTO 181153
MTRBLU
METAR KBLU 181152Z AUTO VRB03KT 6SM -SN BR FEW011 BKN016 OVC029
01/M01 A3009 RMK AO2 SNB39 SLP199 P0000 60000 70043 I1001 I6001
T00061011 10006 20006 51005





000
SAUS46 KSTO 181132
MTRBLU
SPECI KBLU 181131Z AUTO VRB04KT 7SM SCT010 OVC016 01/M01 A3009 RMK
AO2 I1001 T00061011





000
SAUS46 KSTO 181113
MTRBLU
SPECI KBLU 181112Z AUTO 14006KT 8SM BKN010 OVC016 01/M01 A3009 RMK
AO2 I1000 T00061011





000
SAUS46 KSTO 181058
MTRBLU
SPECI KBLU 181056Z AUTO 13006KT 8SM BKN009 OVC022 01/M01 A3009 RMK
AO2 T00061011





000
SAUS46 KSTO 181058
MTRBLU
SPECI KBLU 181056Z AUTO 13006KT 8SM BKN009 OVC022 01/M01 A3009 RMK
AO2 T00061011





000
SAUS46 KSTO 181053
MTRBLU
METAR KBLU 181052Z AUTO 13004KT 8SM SCT011 BKN015 OVC022 01/M01
A3009 RMK AO2 SNB04E17 SLP198 P0000 T00061011





000
SAUS46 KSTO 181053
MTRBLU
METAR KBLU 181052Z AUTO 13004KT 8SM SCT011 BKN015 OVC022 01/M01
A3009 RMK AO2 SNB04E17 SLP198 P0000 T00061011





000
SAUS46 KSTO 181043
MTRBLU
SPECI KBLU 181042Z AUTO 14004KT 10SM SCT011 BKN022 OVC029 01/M01
A3009 RMK AO2 SNB04E17 P0000 T00061011





000
SAUS46 KSTO 181043
MTRBLU
SPECI KBLU 181042Z AUTO 14004KT 10SM SCT011 BKN022 OVC029 01/M01
A3009 RMK AO2 SNB04E17 P0000 T00061011





000
SAUS46 KSTO 181016
MTRBLU
SPECI KBLU 181015Z AUTO 12004KT 4SM -SN BR FEW005 BKN011 OVC024
01/M01 A3008 RMK AO2 SNB04 P0000 T00061011





000
SAUS46 KSTO 180953
MTRBLU
METAR KBLU 180952Z AUTO VRB04KT 9SM BKN009 BKN013 OVC021 01/M01
A3008 RMK AO2 CIG 005V011 SLP195 T00061011





000
SAUS46 KSTO 180951
MTRBLU
SPECI KBLU 180950Z AUTO 14005KT 9SM BKN009 OVC021 01/M01 A3008 RMK
AO2 CIG 005V013





000
SAUS46 KSTO 180944
MTRBLU
SPECI KBLU 180943Z AUTO 13005KT 10SM SCT008 OVC020 01/M01 A3007 RMK
AO2 T00061011





000
SAUS46 KSTO 180853
MTRBLU
METAR KBLU 180852Z AUTO 13004KT 3SM BR BKN005 OVC008 01/M01 A3007
RMK AO2 SLP192 I1000 I3000 T00061011 50001





000
SAUS46 KSTO 180853
MTRBLU
METAR KBLU 180852Z AUTO 13004KT 3SM BR BKN005 OVC008 01/M01 A3007
RMK AO2 SLP192 I1000 I3000 T00061011 50001





000
SAUS46 KSTO 180836
MTRBLU
SPECI KBLU 180835Z AUTO 13006KT 8SM OVC006 01/M01 A3007 RMK AO2 CIG
003V008 I1000 T00061011





000
SAUS46 KSTO 180836
MTRBLU
SPECI KBLU 180835Z AUTO 13006KT 8SM OVC006 01/M01 A3007 RMK AO2 CIG
003V008 I1000 T00061011





000
SAUS46 KSTO 180806
MTRBLU
SPECI KBLU 180805Z AUTO 15007KT 3SM BR OVC004 01/M01 A3008 RMK AO2
T00061011





000
SAUS46 KSTO 180806
MTRBLU
SPECI KBLU 180805Z AUTO 15007KT 3SM BR OVC004 01/M01 A3008 RMK AO2
T00061011





000
SAUS46 KSTO 180802
MTRBLU
SPECI KBLU 180801Z AUTO 14006KT 1 3/4SM BR OVC004 01/M01 A3008 RMK
AO2 T00061011





000
SAUS46 KSTO 180802
MTRBLU
SPECI KBLU 180801Z AUTO 14006KT 1 3/4SM BR OVC004 01/M01 A3008 RMK
AO2 T00061011





000
SAUS46 KSTO 180753
MTRBLU
METAR KBLU 180752Z AUTO 15006KT 2 1/2SM BR OVC004 01/M01 A3008 RMK
AO2 SLP195 T00061011 400060000





000
SAUS46 KSTO 180753
MTRBLU
METAR KBLU 180752Z AUTO 15006KT 2 1/2SM BR OVC004 01/M01 A3008 RMK
AO2 SLP195 T00061011 400060000





000
SAUS46 KSTO 180653
MTRBLU
METAR KBLU 180652Z AUTO 15007KT 10SM OVC008 01/M01 A3007 RMK AO2 CIG
005V011 SLP193 T00061011





000
SAUS46 KSTO 180554
MTRBLU
METAR KBLU 180552Z AUTO VRB05KT 10SM OVC010 01/M01 A3007 RMK AO2 CIG
007V012 SLP191 60010 I6004 T00061011 10006 20000 51006





000
SAUS46 KSTO 180453
MTRBLU
METAR KBLU 180452Z AUTO VRB05KT 10SM SCT009 OVC016 01/M01 A3006 RMK
AO2 SNB08E22 SLP189 P0000 T00061011





000
SAUS46 KSTO 180417
MTRBLU
SPECI KBLU 180416Z AUTO 14005KT 7SM -SN SCT004 BKN012 OVC019 01/M01
A3006 RMK AO2 SNB08 P0000 T00061011





000
SAUS46 KSTO 180353
MTRBLU
METAR KBLU 180352Z AUTO VRB04KT 9SM SCT003 OVC020 01/M01 A3006 RMK
AO2 SNE24 SLP187 P0001 I1000 T00061011





000
SAUS46 KSTO 180353
MTRBLU
METAR KBLU 180352Z AUTO VRB04KT 9SM SCT003 OVC020 01/M01 A3006 RMK
AO2 SNE24 SLP187 P0001 I1000 T00061011





000
SAUS46 KSTO 180351
MTRBLU
SPECI KBLU 180350Z AUTO VRB04KT 6SM BR SCT003 OVC020 01/M01 A3006
RMK AO2 SNE24 P0001 I1000





000
SAUS46 KSTO 180351
MTRBLU
SPECI KBLU 180350Z AUTO VRB04KT 6SM BR SCT003 OVC020 01/M01 A3006
RMK AO2 SNE24 P0001 I1000





000
SAUS46 KSTO 180348
MTRBLU
SPECI KBLU 180347Z AUTO 14004KT 2SM BR BKN003 OVC020 01/M01 A3005
RMK AO2 SNE24 P0001 I1000





000
SAUS46 KSTO 180348
MTRBLU
SPECI KBLU 180347Z AUTO 14004KT 2SM BR BKN003 OVC020 01/M01 A3005
RMK AO2 SNE24 P0001 I1000





000
SAUS46 KSTO 180337
MTRBLU
SPECI KBLU 180336Z AUTO 14004KT 1SM BR VV004 00/M01 A3005 RMK AO2
SNE24 P0001 I1000 T00001011





000
SAUS46 KSTO 180255 COR
MTRBLU
METAR KBLU 180252Z AUTO 16006KT 1/2SM -SN FG VV003 01/M01 A3005 RMK
AO2 FZRAB40E42SNE10B42 SLP183 P0001 60009 I1001 I3004 T00061011
53013





000
SAUS46 KSTO 180254 COR
MTRBLU
METAR KBLU 180252Z AUTO 16006KT 1/2SM -SN FG VV003 01/M01 A3005 RMK
AO2 FZRAB40E42SNE10B42 SLP183 P0001 60009 I1001 I3004 T00061011
53013





000
SAUS46 KSTO 180153
MTRBLU
METAR KBLU 180152Z AUTO 17007KT 1/4SM -SN FG VV002 00/M01 A3003 RMK
AO2 SNE29B50 SLP176 P0002 I1003 T00001011





000
SAUS46 KSTO 180153
MTRBLU
METAR KBLU 180152Z AUTO 17007KT 1/4SM -SN FG VV002 00/M01 A3003 RMK
AO2 SNE29B50 SLP176 P0002 I1003 T00001011





000
SAUS46 KSTO 180129
MTRBLU
SPECI KBLU 180128Z AUTO 16007KT 1/4SM -SN FG VV003 00/M01 A3002 RMK
AO2 P0002 T00001011





000
SAUS46 KSTO 180053
MTRBLU
METAR KBLU 180052Z AUTO 16008KT 1/2SM -SN FG VV004 00/M01 A3002 RMK
AO2 SLP173 P0006 T00001011





000
SAUS46 KSTO 180044
MTRBLU
SPECI KBLU 180043Z AUTO 15006KT 1/2SM -SN FG VV005 00/M01 A3001 RMK
AO2 P0005 T00001011





000
SAUS46 KSTO 180044
MTRBLU
SPECI KBLU 180043Z AUTO 15006KT 1/2SM -SN FG VV005 00/M01 A3001 RMK
AO2 P0005 T00001011





000
SAUS46 KSTO 172354
MTRBLU
METAR KBLU 172352Z AUTO 13003KT 1/4SM -SN FG VV003 01/M01 A3000 RMK
AO2 SLP168 P0002 60028 T00061011 10006 20000 53005





000
SAUS46 KSTO 172253
MTRBLU
METAR KBLU 172252Z AUTO 14004KT 1/4SM -SN FG VV003 01/M01 A2999 RMK
AO2 SLP162 P0003 T00061006





000
SAUS46 KSTO 172153
MTRBLU
METAR KBLU 172152Z AUTO 16007KT 1/4SM -SN FG VV004 01/M01 A2999 RMK
AO2 SLP164 P0005 T00061011





000
SAUS46 KSTO 172153
MTRBLU
METAR KBLU 172152Z AUTO 16007KT 1/4SM -SN FG VV004 01/M01 A2999 RMK
AO2 SLP164 P0005 T00061011





000
SAUS46 KSTO 172147
MTRBLU
SPECI KBLU 172145Z AUTO 16009KT 1/4SM -SN FG VV004 01/M01 A2999 RMK
AO2 P0004 T00061011





000
SAUS46 KSTO 172133
MTRBLU
SPECI KBLU 172131Z AUTO 16007KT 1/2SM -SN FG VV005 00/M01 A2999 RMK
AO2 P0003 T00001011





000
SAUS46 KSTO 172053
MTRBLU
METAR KBLU 172052Z AUTO 16009KT 1/4SM -SN FG VV004 01/M01 A2998 RMK
AO2 SLP161 P0006 60018 T00061011 58005





000
SAUS46 KSTO 172024
MTRBLU
SPECI KBLU 172023Z AUTO 14006KT 1/2SM -SN FG VV006 00/M01 A2998 RMK
AO2 P0004 T00001011





000
SAUS46 KSTO 172009
MTRBLU
SPECI KBLU 172008Z AUTO 16009KT 1/4SM SN FG VV005 00/M01 A2999 RMK
AO2 P0003 T00001011





000
SAUS46 KSTO 171954
MTRBLU
METAR KBLU 171952Z AUTO 16010KT 1/4SM SN FG VV004 00/M01 A3000 RMK
AO2 SLP165 P0007 T00001011





000
SAUS46 KSTO 171854
MTRBLU
METAR KBLU 171852Z AUTO 15005KT 1/4SM -SN FG VV004 01/M01 A3001 RMK
AO2 SLP166 P0005 T00061011





000
SAUS46 KSTO 171845
MTRBLU
SPECI KBLU 171844Z AUTO 16007KT 1/4SM -SN FG VV004 01/M01 A3001 RMK
AO2 P0004 T00061011





000
SAUS46 KSTO 171829
MTRBLU
SPECI KBLU 171828Z AUTO 16006KT 1/2SM SN FG VV004 01/M01 A3001 RMK
AO2 P0003 T00061011





000
SAUS46 KSTO 171754
MTRBLU
METAR KBLU 171752Z AUTO 15005KT 1/4SM -SN FG VV003 01/M01 A3000 RMK
AO2 SLP163 P0001 60005 I6002 T00061006 10006 20000 53014





000
SAUS46 KSTO 171721
MTRBLU
SPECI KBLU 171720Z AUTO 14006KT 1/4SM -SN FG VV003 01/M01 A2998 RMK
AO2 P0001 T00061011





000
SAUS46 KSTO 171709
MTRBLU
SPECI KBLU 171708Z AUTO VRB06KT 1/2SM -SN FG VV004 01/M01 A2998 RMK
AO2 P0001 T00061011





000
SAUS46 KSTO 171702
MTRBLU
SPECI KBLU 171701Z AUTO 15008KT 1/4SM -SN FG VV004 01/M01 A2998 RMK
AO2 P0000 T00061011





000
SAUS46 KSTO 171653
MTRBLU
METAR KBLU 171652Z AUTO 16008KT 1/2SM SN FG VV004 01/M01 A2997 RMK
AO2 SNB30 SLP150 P0001 I1000 T00061011





000
SAUS46 KSTO 171641
MTRBLU
SPECI KBLU 171640Z AUTO VRB05KT 1/2SM -SN FG VV003 01/M01 A2997 RMK
AO2 SNB30 P0000 I1000 T00061011





000
SAUS46 KSTO 171553
MTRBLU
METAR KBLU 171552Z AUTO 14006KT 1/4SM FG VV002 01/M01 A2996 RMK AO2
SLP145 I1002 T00061006





000
SAUS46 KSTO 171553
MTRBLU
METAR KBLU 171552Z AUTO 14006KT 1/4SM FG VV002 01/M01 A2996 RMK AO2
SLP145 I1002 T00061006





000
SAUS46 KSTO 171453
MTRBLU
METAR KBLU 171452Z AUTO 16006KT 1/4SM FG VV002 01/M01 A2995 RMK AO2
SNE35 SLP143 P0000 60003 I1000 I3000 T00061011 53009





000
SAUS46 KSTO 171446
MTRBLU
SPECI KBLU 171445Z AUTO 15007KT 1/4SM FG VV002 01/M01 A2995 RMK AO2
SNE35 P0000 T00061011





000
SAUS46 KSTO 171437
MTRBLU
SPECI KBLU 171436Z AUTO 16006KT 1/2SM FG VV002 01/M01 A2995 RMK AO2
SNE35 P0000 T00061011





000
SAUS46 KSTO 171354
MTRBLU
METAR KBLU 171352Z AUTO 14005KT 1/4SM -SN FG VV002 01/M01 A2994 RMK
AO2 SNE44B46 SLP140 P0002 T00061011





000
SAUS46 KSTO 171345
MTRBLU
SPECI KBLU 171344Z AUTO VRB05KT 1/4SM FG VV002 00/M01 A2994 RMK AO2
SNE44 P0002 T00001011





000
SAUS46 KSTO 171314
MTRBLU
SPECI KBLU 171313Z AUTO 15005KT 1/2SM -SN FG VV002 00/M01 A2993 RMK
AO2 P0001 T00001011





000
SAUS46 KSTO 171253
MTRBLU
METAR KBLU 171252Z AUTO 17007KT 1/4SM -SN FG VV002 01/M01 A2993 RMK
AO2 SNE29B49 SLP133 P0001 I1000 T00061011





000
SAUS46 KSTO 171217
MTRBLU
SPECI KBLU 171216Z AUTO 15005KT 1/4SM -SN FG VV002 00/M01 A2992 RMK
AO2 P0001 T00001011





000
SAUS46 KSTO 171155 COR
MTRBLU
METAR KBLU 171152Z AUTO 16006KT 1/2SM -SN FG VV003 00/M01 A2992 RMK
AO2 UPB27E36FZRAB36E40SNE27B40 SLP135 P0004 60023 70063 I1001 I6001
T00001011 10011 20000 51010





000
SAUS46 KSTO 171154 COR
MTRBLU
METAR KBLU 171152Z AUTO 16006KT 1/2SM -SN FG VV003 00/M01 A2992 RMK
AO2 UPB27E36FZRAB36E40SNE27B40 SLP135 P0004 60023 70063 I1001 I6001
T00001011 10011 20000 51010





000
SAUS46 KSTO 171053
MTRBLU
METAR KBLU 171052Z AUTO 15008KT 1/2SM -SN FG VV003 00/M01 A2991 RMK
AO2 SLP130 P0002 T00001011





000
SAUS46 KSTO 171037
MTRBLU
SPECI KBLU 171036Z AUTO 15005KT 1/2SM -SN FG VV004 00/M01 A2990 RMK
AO2 P0002 T00001011





000
SAUS46 KSTO 171010
MTRBLU
SPECI KBLU 171009Z AUTO 16006KT 3/4SM -SN BR VV005 00/M01 A2990 RMK
AO2 P0001 T00001011





000
SAUS46 KSTO 171010
MTRBLU
SPECI KBLU 171009Z AUTO 16006KT 3/4SM -SN BR VV005 00/M01 A2990 RMK
AO2 P0001 T00001011





000
SAUS46 KSTO 170953
MTRBLU
METAR KBLU 170952Z AUTO 16006KT 1/2SM -SN FG VV004 00/M01 A2990 RMK
AO2 SLP127 P0005 T00001011





000
SAUS46 KSTO 170953
MTRBLU
METAR KBLU 170952Z AUTO 16006KT 1/2SM -SN FG VV004 00/M01 A2990 RMK
AO2 SLP127 P0005 T00001011





000
SAUS46 KSTO 170854
MTRBLU
METAR KBLU 170852Z AUTO 15008G17KT 1/2SM SN FG VV004 00/M01 A2988
RMK AO2 SLP122 P0004 60012 T00001011 50002





000
SAUS46 KSTO 170854
MTRBLU
METAR KBLU 170852Z AUTO 15008G17KT 1/2SM SN FG VV004 00/M01 A2988
RMK AO2 SLP122 P0004 60012 T00001011 50002





000
SAUS46 KSTO 170812
MTRBLU
SPECI KBLU 170811Z AUTO 16010G15KT 1/2SM SN FG VV003 00/M01 A2990
RMK AO2 P0001 T00001011





000
SAUS46 KSTO 170812
MTRBLU
SPECI KBLU 170811Z AUTO 16010G15KT 1/2SM SN FG VV003 00/M01 A2990
RMK AO2 P0001 T00001011





000
SAUS46 KSTO 170753
MTRBLU
METAR KBLU 170752Z AUTO 15008G17KT 1/4SM SN FG VV002 01/M01 A2990
RMK AO2 SLP126 P0006 T00061011 400280006





000
SAUS46 KSTO 170753
MTRBLU
METAR KBLU 170752Z AUTO 15008G17KT 1/4SM SN FG VV002 01/M01 A2990
RMK AO2 SLP126 P0006 T00061011 400280006





000
SAUS46 KSTO 170701
MTRBLU
SPECI KBLU 170700Z AUTO 17014G20KT 1/4SM SN FG VV002 01/M01 A2989
RMK AO2 P0001 T00061006





000
SAUS46 KSTO 170654
MTRBLU
METAR KBLU 170652Z AUTO 16013G21KT 1/2SM -SN FG OVC004 01/M01 A2989
RMK AO2 SLP121 P0002 T00111006





000
SAUS46 KSTO 170649
MTRBLU
SPECI KBLU 170648Z AUTO 16012G21KT 3/4SM -SN BR OVC004 01/M01 A2989
RMK AO2 P0002





000
SAUS46 KSTO 170640
MTRBLU
SPECI KBLU 170639Z AUTO 16015G22KT 1 3/4SM -SN BR BKN003 OVC008
01/M01 A2988 RMK AO2 P0002 T00111006





000
SAUS46 KSTO 170630
MTRBLU
SPECI KBLU 170629Z AUTO 15009G19KT 4SM -SN BR BKN003 OVC008 01/M01
A2989 RMK AO2 P0002 T00111006





000
SAUS46 KSTO 170622
MTRBLU
SPECI KBLU 170621Z AUTO 15008G17KT 2SM -SN BR BKN003 OVC010 01/M01
A2988 RMK AO2 P0001 T00111006





000
SAUS46 KSTO 170612
MTRBLU
SPECI KBLU 170611Z AUTO 14008KT 1 1/4SM -SN BR OVC003 01/M01 A2988
RMK AO2 P0001 T00111006





000
SAUS46 KSTO 170556
MTRBLU
SPECI KBLU 170555Z AUTO 15012G18KT 2SM -SN BR OVC003 01/M01 A2988
RMK AO2 P0000 T00111006





000
SAUS46 KSTO 170554 COR
MTRBLU
METAR KBLU 170552Z AUTO 15009G16KT 110V180 1SM -SN BR VV003 01/M01
A2988 RMK AO2 RAB0454E02UPB19E23SNB02E19B23 SLP120 P0005 60005
T00111006 10028 20011 53001





000
SAUS46 KSTO 170537
MTRBLU
SPECI KBLU 170536Z AUTO 16009G20KT 3/4SM -SN BR BKN003 OVC008 01/00
A2988 RMK AO2 RAB0454E02UPB19E23SNB02E19B23 P0003 T00110000





000
SAUS46 KSTO 170534
MTRBLU
SPECI KBLU 170533Z AUTO 15007G20KT 090V180 1 1/2SM -SN BR BKN003
OVC008 01/00 A2988 RMK AO2 RAB0454E02UPB19E23SNB02E19B23 P0003
T00110000





000
SAUS46 KSTO 170513
MTRBLU
SPECI KBLU 170512Z AUTO 15012G24KT 4SM -SN BR BKN004 BKN010 OVC016
02/00 A2987 RMK AO2 RAB0454E02SNB02 P0002 T00170000





000
SAUS46 KSTO 170455 COR
MTRBLU
METAR KBLU 170452Z AUTO 17011KT 9SM FEW008 BKN012 OVC028 02/00 A2987
RMK AO2 UPB0358E07B11E49SNB0357E0358B40E48B49E50 SLP115 P0000
T00220000





000
SAUS46 KSTO 170455 COR
MTRBLU
METAR KBLU 170452Z AUTO 17011KT 9SM FEW008 BKN012 OVC028 02/00 A2987
RMK AO2 UPB0358E07B11E49SNB0357E0358B40E48B49E50 SLP115 P0000
T00220000





000
SAUS46 KSTO 170454 COR
MTRBLU
METAR KBLU 170452Z AUTO 17011KT 9SM FEW008 BKN012 OVC028 02/00 A2987
RMK AO2 UPB0358E07B11E49SNB0357E0358B40E48B49E50 SLP115 P0000
T00220000





000
SAUS46 KSTO 170454 COR
MTRBLU
METAR KBLU 170452Z AUTO 17011KT 9SM FEW008 BKN012 OVC028 02/00 A2987
RMK AO2 UPB0358E07B11E49SNB0357E0358B40E48B49E50 SLP115 P0000
T00220000





000
SAUS46 KSTO 170451
MTRBLU
SPECI KBLU 170450Z AUTO VRB06G22KT 9SM FEW008 BKN012 OVC028 02/00
A2987 RMK AO2 UPB0358E07B11E49SNB0357E0358B40E48B49E50 P0000





000
SAUS46 KSTO 170451
MTRBLU
SPECI KBLU 170450Z AUTO VRB06G22KT 9SM FEW008 BKN012 OVC028 02/00
A2987 RMK AO2 UPB0358E07B11E49SNB0357E0358B40E48B49E50 P0000





000
SAUS46 KSTO 170409
MTRBLU
SPECI KBLU 170407Z AUTO 15008G15KT 10SM BKN014 BKN025 OVC036 02/00
A2987 RMK AO2 UPB0358E07SNB0357E0358 P0000 T00220000





000
SAUS46 KSTO 170353
MTRBLU
METAR KBLU 170352Z AUTO 16008G16KT 10SM BKN015 BKN023 OVC035 03/00
A2987 RMK AO2 UPB43E52 SLP113 P0000 T00280000





000
SAUS46 KSTO 170353
MTRBLU
METAR KBLU 170352Z AUTO 16008G16KT 10SM BKN015 BKN023 OVC035 03/00
A2987 RMK AO2 UPB43E52 SLP113 P0000 T00280000





000
SAUS46 KSTO 170337
MTRBLU
SPECI KBLU 170336Z AUTO VRB05KT 10SM SCT013 BKN023 OVC037 02/00
A2986 RMK AO2 T00220000





000
SAUS46 KSTO 170337
MTRBLU
SPECI KBLU 170336Z AUTO VRB05KT 10SM SCT013 BKN023 OVC037 02/00
A2986 RMK AO2 T00220000





000
SAUS46 KSTO 170254
MTRBLU
METAR KBLU 170252Z AUTO 15012G23KT 10SM BKN014 OVC019 03/00 A2987
RMK AO2 SLP115 60000 T00280000 55000





000
SAUS46 KSTO 170228
MTRBLU
SPECI KBLU 170227Z AUTO VRB05KT 10SM OVC013 02/00 A2987 RMK AO2
T00220000





000
SAUS46 KSTO 170154
MTRBLU
METAR KBLU 170152Z AUTO VRB05KT 9SM SCT011 OVC016 02/00 A2987 RMK
AO2 UPB0057E49 SLP117 P0000 T00170000





000
SAUS46 KSTO 170149
MTRBLU
SPECI KBLU 170148Z AUTO VRB03G14KT 10SM UP SCT011 BKN016 OVC030
02/00 A2987 RMK AO2 UPB0057 P0000





000
SAUS46 KSTO 170105
MTRBLU
SPECI KBLU 170104Z AUTO 13008KT 080V160 10SM UP BKN010 BKN014 OVC034
02/00 A2987 RMK AO2 UPB0057 P0000 T00220000





000
SAUS46 KSTO 170053
MTRBLU
METAR KBLU 170052Z AUTO VRB05G14KT 10SM SCT009 BKN015 OVC033 02/00
A2987 RMK AO2 SLP115 T00220000





000
SAUS46 KSTO 162353
MTRBLU
METAR KBLU 162352Z AUTO 16007KT 10SM SCT004 BKN008 OVC011 02/01
A2988 RMK AO2 RAB03E16UPB27E36 SLP117 P0000 60003 I6000 T00220006
10022 20011 55006





000
SAUS46 KSTO 162316
MTRBLU
SPECI KBLU 162315Z AUTO 16006G17KT 8SM -RA BKN003 BKN007 OVC012
02/01 A2988 RMK AO2 RAB03 P0000 T00220006





000
SAUS46 KSTO 162254
MTRBLU
METAR KBLU 162252Z AUTO 16007KT 10SM OVC008 02/01 A2988 RMK AO2
RAE14 SLP116 P0002 T00220006





000
SAUS46 KSTO 162242
MTRBLU
SPECI KBLU 162241Z AUTO 15009G17KT 10SM BKN006 OVC009 02/00 A2988
RMK AO2 RAE14 P0002 T00220000





000
SAUS46 KSTO 162234
MTRBLU
SPECI KBLU 162232Z AUTO 16010G19KT 10SM FEW003 BKN010 OVC023 02/00
A2988 RMK AO2 RAE14 P0002 T00220000





000
SAUS46 KSTO 162227
MTRBLU
SPECI KBLU 162225Z AUTO 16011G19KT 10SM BKN005 OVC010 02/01 A2988
RMK AO2 RAE14 P0002 T00220006





000
SAUS46 KSTO 162218
MTRBLU
SPECI KBLU 162217Z AUTO 16008G15KT 2SM BR BKN005 OVC010 02/01 A2988
RMK AO2 RAE14 P0002 T00220006 $





000
SAUS46 KSTO 162212
MTRBLU
SPECI KBLU 162211Z AUTO 15009G15KT 1 1/4SM -RA BR BKN005 OVC010
02/01 A2988 RMK AO2 VIS 1/2V4 P0001 T00220006 $





000
SAUS46 KSTO 162208
MTRBLU
SPECI KBLU 162206Z AUTO 16008KT 2 1/2SM -RA BR BKN003 OVC010 02/01
A2988 RMK AO2 VIS 1 1/4V4 P0001 T00170006 $





000
SAUS46 KSTO 162208
MTRBLU
SPECI KBLU 162206Z AUTO 16008KT 2 1/2SM -RA BR BKN003 OVC010 02/01
A2988 RMK AO2 VIS 1 1/4V4 P0001 T00170006 $





000
SAUS46 KSTO 162203
MTRBLU
SPECI KBLU 162202Z AUTO 16007G16KT 2 1/2SM RA BR SCT003 BKN010
OVC015 02/01 A2988 RMK AO2 VIS 1 3/4V4 P0001 T00170006 $





000
SAUS46 KSTO 162203
MTRBLU
SPECI KBLU 162202Z AUTO 16007G16KT 2 1/2SM RA BR SCT003 BKN010
OVC015 02/01 A2988 RMK AO2 VIS 1 3/4V4 P0001 T00170006 $





000
SAUS46 KSTO 162154
MTRBLU
METAR KBLU 162152Z AUTO 16008KT 8SM -RA BKN005 OVC010 02/01 A2989
RMK AO2 RAB12UPB28E33SNB22E28 SLP121 P0001 I1000 T00220006 $





000
SAUS46 KSTO 162054
MTRBLU
METAR KBLU 162052Z AUTO 15007KT 10SM BKN008 OVC012 02/01 A2990 RMK
AO2 UPB27E29SNB16E27 CIG 004V009 SLP125 P0000 60000 T00170006 58017
$





000
SAUS46 KSTO 162028
MTRBLU
SPECI KBLU 162027Z AUTO 14006KT 9SM UP BKN006 OVC011 02/00 A2992 RMK
AO2 UPB27SNB16E27 CIG 004V008 P0000 T00170000 $





000
SAUS46 KSTO 162021
MTRBLU
SPECI KBLU 162020Z AUTO 16009G15KT 8SM -SN SCT006 OVC011 02/00 A2992
RMK AO2 SNB16 P0000 T00170000 $





000
SAUS46 KSTO 162000
MTRBLU
SPECI KBLU 161959Z AUTO 14007G18KT 10SM BKN004 OVC009 02/00 A2992
RMK AO2 T00170000 $





000
SAUS46 KSTO 161953
MTRBLU
METAR KBLU 161952Z AUTO 15010G18KT 2SM BR OVC002 02/00 A2993 RMK AO2
VIS 1/2V5 SLP134 T00170000 $





000
SAUS46 KSTO 161936
MTRBLU
SPECI KBLU 161935Z AUTO 16012G20KT 1/2SM FG VV002 02/00 A2994 RMK
AO2 T00170000 $





000
SAUS46 KSTO 161853
MTRBLU
METAR KBLU 161852Z AUTO 16008G19KT 1/4SM FG VV002 02/00 A2995 RMK
AO2 UPE14SNB1759E10 SLP143 P0000 T00170000 $





000
SAUS46 KSTO 161753
MTRBLU
METAR KBLU 161752Z AUTO 17012KT M1/4SM UP FG VV002 01/00 A2996 RMK
AO2 RAB48E49UPB49SNE46 SLP149 P0001 60032 T00110000 10011 20006
53009 $





000
SAUS46 KSTO 161653
MTRBLU
METAR KBLU 161652Z AUTO 14005KT 1/4SM -SN FG VV003 01/M01 A2995 RMK
AO2 SLP144 P0004 T00061006 $





000
SAUS46 KSTO 161553
MTRBLU
METAR KBLU 161552Z AUTO 16009KT M1/4SM -SN FG VV002 01/M01 A2994 RMK
AO2 SLP141 P0006 T00061006 $





000
SAUS46 KSTO 161553
MTRBLU
METAR KBLU 161552Z AUTO 16009KT M1/4SM -SN FG VV002 01/M01 A2994 RMK
AO2 SLP141 P0006 T00061006 $





000
SAUS46 KSTO 161453
MTRBLU
METAR KBLU 161452Z AUTO 15007G15KT 1/4SM -SN FG VV002 01/M01 A2993
RMK AO2 SLP143 P0005 60021 T00061006 53005 $





000
SAUS46 KSTO 161353
MTRBLU
METAR KBLU 161352Z AUTO 16010KT 1/4SM -SN FG VV002 01/M01 A2992 RMK
AO2 UPB49E51SNE49B51 SLP141 P0007 T00061006





000
SAUS46 KSTO 161323
MTRBLU
SPECI KBLU 161322Z AUTO 16008KT 1/4SM -SN FG VV003 01/M01 A2992 RMK
AO2 P0005 T00061006





000
SAUS46 KSTO 161254
MTRBLU
METAR KBLU 161252Z AUTO 18009KT 1/2SM SN FG VV003 01/M01 A2992 RMK
AO2 UPB09E16SNE09B16 SLP138 P0009 T00061006





000
SAUS46 KSTO 161240
MTRBLU
SPECI KBLU 161239Z AUTO 18009KT 1/2SM SN FG VV003 01/M01 A2992 RMK
AO2 UPB09E16SNE09B16 P0006 T00061006





000
SAUS46 KSTO 161156 COR
MTRBLU
METAR KBLU 161152Z AUTO 17011KT 1/4SM -SN FG VV002 01/M01 A2991 RMK
AO2 RAE07UPB1058E04SNB07 SLP136 P0009 60035 70090 T00111006 10017
20011 51004





000
SAUS46 KSTO 161154 COR
MTRBLU
METAR KBLU 161152Z AUTO 17011KT 1/4SM -SN FG VV002 01/M01 A2991 RMK
AO2 RAE07UPB1058E04SNB07 SLP136 P0009 60035 70090 T00111006 10017
20011 51004





000
SAUS46 KSTO 161153
MTRBLU
METAR KBLU 161152Z AUTO 17011KT 1/4SM -SN FG VV002 01/M01 A2991 RMK
AO2 RAE07UPB1058E04SNB07 SLP136 P0009 60035 70090 T00111006 10017
20011 51004





000
SAUS46 KSTO 161054
MTRBLU
METAR KBLU 161052Z AUTO 16008G19KT 1/4SM -RA FG VV002 01/00 A2991
RMK AO2 RAB37SNE37 SLP136 P0005 T00110000





000
SAUS46 KSTO 160953
MTRBLU
METAR KBLU 160952Z AUTO 16014G18KT 1/4SM SN FG VV002 01/M01 A2990
RMK AO2 SNB0857 SLP129 P0007 T00111006





000
SAUS46 KSTO 160953
MTRBLU
METAR KBLU 160952Z AUTO 16014G18KT 1/4SM SN FG VV002 01/M01 A2990
RMK AO2 SNB0857 SLP129 P0007 T00111006





000
SAUS46 KSTO 160853
MTRBLU
METAR KBLU 160852Z AUTO 15009KT 1/4SM FG VV002 01/00 A2990 RMK AO2
RAB38E43UPB43E48SNE38 SLP128 P0007 60014 T00110000 58002





000
SAUS46 KSTO 160849
MTRBLU
SPECI KBLU 160848Z AUTO 15009KT 1/4SM FG VV002 01/00 A2990 RMK AO2
RAB38E43UPB43E48SNE38 P0007





000
SAUS46 KSTO 160839
MTRBLU
SPECI KBLU 160838Z AUTO 16008KT 1/2SM -RA FG VV002 01/M01 A2990 RMK
AO2 RAB38SNE38 P0007 T00111006





000
SAUS46 KSTO 160754
MTRBLU
METAR KBLU 160752Z AUTO 17009KT 1/4SM -SN FG VV002 01/00 A2991 RMK
AO2 RAE0658B16E31SNB0658 SLP131 P0004 T00110000 400391006





000
SAUS46 KSTO 160710
MTRBLU
SPECI KBLU 160708Z AUTO 16013G18KT 1/4SM -SN FG VV002 01/00 A2991
RMK AO2 RAE0658SNB0658 P0000 T00110000





000
SAUS46 KSTO 160653
MTRBLU
METAR KBLU 160652Z AUTO 17012KT 1/4SM -RA FG VV001 01/00 A2991 RMK
AO2 RAB09E13B50UPB22E43SNE22B43E50 SLP130 P0003 T00110000





000
SAUS46 KSTO 160627
MTRBLU
SPECI KBLU 160626Z AUTO 17013KT 1/4SM UP FG VV001 01/00 A2991 RMK
AO2 RAB09E13UPB22SNE22 P0002 T00110000





000
SAUS46 KSTO 160553
MTRBLU
METAR KBLU 160552Z AUTO 16007KT 1/4SM -SN FG VV002 01/M01 A2990 RMK
AO2 SLP133 P0004 60018 T00111006 10011 20000 51003





000
SAUS46 KSTO 160509
MTRBLU
SPECI KBLU 160508Z AUTO 15009G16KT 1/4SM -SN FG VV002 01/M01 A2991
RMK AO2 P0000 T00111006





000
SAUS46 KSTO 160453
MTRBLU
METAR KBLU 160452Z AUTO 15010G16KT 1SM -SN BR OVC003 01/M01 A2990
RMK AO2 VIS 1/2V3 SNB0353 SLP133 P0004 T00111006





000
SAUS46 KSTO 160444
MTRBLU
SPECI KBLU 160443Z AUTO 15010KT 1 1/4SM -SN BR OVC003 01/M01 A2990
RMK AO2 SNB0353 P0004 T00111006





000
SAUS46 KSTO 160424
MTRBLU
SPECI KBLU 160423Z AUTO 16009KT 1 3/4SM -SN BR OVC004 01/M01 A2990
RMK AO2 SNB0353 CIG 002V009 P0001 T00111006





000
SAUS46 KSTO 160424
MTRBLU
SPECI KBLU 160423Z AUTO 16009KT 1 3/4SM -SN BR OVC004 01/M01 A2990
RMK AO2 SNB0353 CIG 002V009 P0001 T00111006





000
SAUS46 KSTO 160353
MTRBLU
METAR KBLU 160352Z AUTO 16013G17KT 9SM OVC003 01/M01 A2990 RMK AO2
SNE50 CIG 002V007 SLP132 P0001 T00111006





000
SAUS46 KSTO 160353
MTRBLU
METAR KBLU 160352Z AUTO 16013G17KT 9SM OVC003 01/M01 A2990 RMK AO2
SNE50 CIG 002V007 SLP132 P0001 T00111006





000
SAUS46 KSTO 160309
MTRBLU
SPECI KBLU 160308Z AUTO 15009G17KT 3SM -SN BR OVC002 01/M01 A2990
RMK AO2 P0001 T00061011





000
SAUS46 KSTO 160253
MTRBLU
METAR KBLU 160252Z AUTO VRB05G14KT 1 1/2SM -SN BR OVC004 01/M01
A2989 RMK AO2 SLP133 P0003 60009 T00061011 53003





000
SAUS46 KSTO 160246
MTRBLU
SPECI KBLU 160244Z AUTO 14008G14KT 1 1/4SM -SN BR OVC004 01/M01
A2989 RMK AO2 P0002 T00061011





000
SAUS46 KSTO 160246
MTRBLU
SPECI KBLU 160244Z AUTO 14008G14KT 1 1/4SM -SN BR OVC004 01/M01
A2989 RMK AO2 P0002 T00061011





000
SAUS46 KSTO 160236
MTRBLU
SPECI KBLU 160234Z AUTO 14007G15KT 1 1/4SM -SN BR OVC005 01/M01
A2989 RMK AO2 P0002 T00061011





000
SAUS46 KSTO 160236
MTRBLU
SPECI KBLU 160234Z AUTO 14007G15KT 1 1/4SM -SN BR OVC005 01/M01
A2989 RMK AO2 P0002 T00061011





000
SAUS46 KSTO 160227
MTRBLU
SPECI KBLU 160226Z AUTO 15010G17KT 1 1/4SM -SN BR OVC003 01/M01
A2989 RMK AO2 P0002 T00061011





000
SAUS46 KSTO 160212
MTRBLU
SPECI KBLU 160210Z AUTO 15009G15KT 110V170 1 1/2SM -SN BR BKN003
OVC006 01/M01 A2989 RMK AO2 P0001 T00061011





000
SAUS46 KSTO 160153
MTRBLU
METAR KBLU 160152Z AUTO 15007KT 1 1/4SM -SN BR OVC003 00/M01 A2989
RMK AO2 SLP131 P0002 T00001011





000
SAUS46 KSTO 160149
MTRBLU
SPECI KBLU 160148Z AUTO 15006KT 1 1/4SM -SN BR OVC003 00/M01 A2989
RMK AO2 P0002





000
SAUS46 KSTO 160142
MTRBLU
SPECI KBLU 160141Z AUTO 14009KT 3/4SM -SN BR VV003 00/M01 A2988 RMK
AO2 P0002 T00001011





    US Dept of Commerce
    National Oceanic and Atmospheric Administration
    National Weather Service
    1325 East West Highway
    Silver Spring, MD 20910
    Page Author: NWS Internet Services Team
Disclaimer
Information Quality
Credits
Glossary
Privacy Policy
Freedom of Information Act (FOIA)
About Us
Career Opportunities